Fort Severn Airport
CYER : now visible

Airfield :











YOU CAN JOIN US ON...

 
LOGIN :

Register | Disclaimer

   EN    FR    IT 

 









Legend :    VFR   Marginal VFR   IFR   Intensive IFR   Very Intensive IFR
Visi :
Ceiling :
>= 8 km
>= 3000ft
5 to 8 km
1000 to 3000 ft
1500m to 5 km
500 to 1000 ft
800 to 1500m
200 to 500 ft
< 800m
< 200 ft
Symbols :   Thunderstorms  Fog  Heavy snow  Heavy precipitations  Wind > 20 kt






- Airport Elevation : 48 ft
- IATA code : YER


CYER - Fort Severn

CURRENT METAR :
  • 181700Z AUTO 05007KT 9SM SCT012 BKN100 M18/M20 A3036 RMK SLP283

EXPIRED METARs :
  • 181648Z AUTO 05008KT 9SM SCT012 M18/M20 A3036 RMK SLP285
  • 181628Z AUTO 03004KT 9SM OVC012 M20/M21 A3037 RMK SLP287
  • 181600Z AUTO 01003KT 9SM BKN009 M20/M22 A3038 RMK SLP290
  • 181500Z AUTO 05002KT 9SM BKN009 BKN060 M21/M22 A3038 RMK SLP290
  • 181456Z AUTO 04003KT 9SM BKN009 BKN060 M21/M23 A3038 RMK SLP290

TAF AMD TAF CYER
Valid from the 18 at 15:00 until the 18 at 20:00 UTC


181512Z 1815/1820 VRB03KT 5SM -SN BKN009 OVC060
TEMPO 1815/1818 P6SM NSW FEW009 OVC060
PROB40 1815/1818 BKN008
FM181800 04008KT P6SM BKN050
PROB30 1818/1820 BKN008 RMK FCST BASED ON AUTO OBS. NXT FCST WILL BE ISSUED AT 190945Z



MET'MAP, your aeronautical weather chart ! - Copyright ORBIFLY December 2007 - Disclaimer

ORBIFLY MET'MAP TEAM :

Programming & Development : Alexandra Zaïnal
Concept & original design : Baudouin d'Aumeries
Assistance for programming : Marc-Olivier Méhu
Technical & hardware support : Manuel Goepfert

Contact : metmap@orbifly.com




SOURCES & CREDITS :

   NOAA       Earth
Advisory